KSCF/SCF METAR and TAF weather

Enter ICAO airport designator
Station Type Date Time Source
KSCF METAR 2020/11/28 19:05 UTC NOAA

KSCF 281905Z AUTO 06015KT 8SM BKN014 20/18 A3005 RMK A01


Station Type Date Time Source
KSCF Decoded METAR 2020/11/28 19:05 UTC NOAA

South Marsh 268, LA, United States (KSCF) 29-06-57N 091-52-16W
Nov 28, 2020 - 02:05 PM EST / 2020.11.28 1905 UTC
Wind: from the ENE (060 degrees) at 17 MPH (15 KT):0
Visibility: 8 mile(s):0
Sky conditions: mostly cloudy
Temperature: 68 F (20 C)
Dew Point: 64 F (18 C)
Relative Humidity: 88%
Pressure (altimeter): 30.05 in. Hg (1017 hPa)
ob: KSCF 281905Z AUTO 06015KT 8SM BKN014 20/18 A3005 RMK A01
cycle: 19

Station Type Date Time Source
KSCF TAF UTC NOAA

Error!

Example: see airport list